Time;durP1;ratioP1;P1;durP2;ratioP2;P2;SDS_P1;SDS_P2;PMS_P1;PMS_P2;Temp;Humidity;BMP_temperature;BMP_pressure;BME280_temperature;BME280_humidity;BME280_pressure;Samples;Min_cycle;Max_cycle;Signal;HPM_P1;HPM_P2
2021/01/23 00:00:50;;;;;;;46.05;21.92;;;3.30;99.90;;;;;;5083983;28;20066;-73
2021/01/23 00:03:16;;;;;;;43.58;26.00;;;3.20;99.90;;;;;;5083638;28;20051;-72
2021/01/23 00:05:42;;;;;;;38.85;22.92;;;3.20;99.90;;;;;;5099537;28;20067;-73
2021/01/23 00:08:08;;;;;;;43.70;23.95;;;3.20;99.90;;;;;;5083659;28;20058;-74
2021/01/23 00:10:33;;;;;;;47.65;25.48;;;3.20;99.90;;;;;;5082134;28;20064;-73
2021/01/23 00:12:59;;;;;;;49.83;25.85;;;3.20;99.90;;;;;;5082716;28;20396;-73
2021/01/23 00:15:25;;;;;;;47.67;23.98;;;3.20;99.90;;;;;;5083836;28;20040;-72
2021/01/23 00:17:50;;;;;;;53.67;27.27;;;3.20;99.90;;;;;;5083837;28;20044;-74
2021/01/23 00:20:16;;;;;;;53.85;29.13;;;3.20;99.90;;;;;;5083717;28;20043;-71
2021/01/23 00:22:42;;;;;;;48.63;26.40;;;3.10;99.90;;;;;;5083158;28;20497;-71
2021/01/23 00:25:08;;;;;;;47.75;25.42;;;3.10;99.90;;;;;;5083119;28;20044;-73
2021/01/23 00:27:33;;;;;;;62.85;24.55;;;3.00;99.90;;;;;;5081282;28;20072;-73
2021/01/23 00:29:59;;;;;;;54.35;25.83;;;2.90;99.90;;;;;;5082979;28;20127;-73
2021/01/23 00:32:25;;;;;;;45.67;25.48;;;2.80;99.90;;;;;;5083038;28;20046;-73
2021/01/23 00:34:51;;;;;;;60.67;28.40;;;2.80;99.90;;;;;;5082223;28;20044;-73
2021/01/23 00:37:16;;;;;;;46.28;28.23;;;2.80;99.90;;;;;;5082832;28;20562;-73
2021/01/23 00:39:42;;;;;;;54.05;29.10;;;2.80;99.90;;;;;;5082994;28;20048;-72
2021/01/23 00:42:08;;;;;;;52.30;28.70;;;2.80;99.90;;;;;;5082091;28;20047;-73
2021/01/23 00:44:33;;;;;;;52.03;29.60;;;2.80;99.90;;;;;;5063792;28;20237;-72
2021/01/23 00:46:59;;;;;;;52.30;29.48;;;2.90;99.90;;;;;;5082756;28;20040;-72
2021/01/23 00:49:25;;;;;;;47.47;25.35;;;2.80;99.90;;;;;;5082931;28;20074;-72
2021/01/23 00:51:50;;;;;;;50.45;24.73;;;2.70;99.90;;;;;;5082591;28;20063;-75
2021/01/23 00:54:16;;;;;;;48.20;25.05;;;2.60;99.90;;;;;;5082651;28;20040;-73
2021/01/23 00:56:42;;;;;;;45.53;24.83;;;2.50;99.90;;;;;;5082814;28;20113;-73
2021/01/23 00:59:08;;;;;;;52.88;27.95;;;2.40;99.90;;;;;;5081989;28;20036;-72
2021/01/23 01:01:33;;;;;;;50.97;29.85;;;2.30;99.90;;;;;;5081325;28;20040;-73
2021/01/23 01:03:59;;;;;;;56.15;29.88;;;2.30;99.90;;;;;;5082960;28;20075;-72
2021/01/23 01:06:24;;;;;;;61.90;31.25;;;2.30;99.90;;;;;;5082281;28;20036;-73
2021/01/23 01:08:50;;;;;;;55.33;31.25;;;2.20;99.90;;;;;;5083013;28;20143;-73
2021/01/23 01:11:16;;;;;;;51.47;33.15;;;2.20;99.90;;;;;;5082092;28;20048;-72
2021/01/23 01:13:42;;;;;;;52.20;32.33;;;2.20;99.90;;;;;;5081209;28;20105;-72
2021/01/23 01:16:07;;;;;;;59.33;32.60;;;2.20;99.90;;;;;;5082496;28;20093;-73
2021/01/23 01:18:33;;;;;;;51.13;31.90;;;2.20;99.90;;;;;;5080966;28;20040;-71
2021/01/23 01:20:58;;;;;;;56.65;31.20;;;2.20;99.90;;;;;;5082740;28;20063;-72
2021/01/23 01:23:24;;;;;;;55.47;34.28;;;2.20;99.90;;;;;;5082327;28;20051;-74
2021/01/23 01:25:50;;;;;;;53.42;32.22;;;2.30;99.90;;;;;;5086271;28;20044;-72
2021/01/23 01:28:15;;;;;;;45.50;30.67;;;2.30;99.90;;;;;;5084229;28;20064;-73
2021/01/23 01:30:41;;;;;;;58.90;32.90;;;2.30;99.90;;;;;;5086923;28;20046;-72
2021/01/23 01:33:06;;;;;;;50.42;27.75;;;2.40;99.90;;;;;;5086336;28;20040;-72
2021/01/23 01:35:32;;;;;;;46.63;26.63;;;2.40;99.90;;;;;;5067671;28;20408;-72
2021/01/23 01:37:58;;;;;;;52.25;28.77;;;2.30;99.90;;;;;;5102332;28;20111;-71
2021/01/23 01:40:23;;;;;;;42.75;28.25;;;2.20;99.90;;;;;;5086741;28;20036;-73
2021/01/23 01:43:09;;;;;;;47.08;29.60;;;2.20;99.90;;;;;;5097605;28;20050;-73
2021/01/23 01:45:35;;;;;;;49.42;31.08;;;2.20;99.90;;;;;;5086141;28;20127;-74
2021/01/23 01:48:00;;;;;;;43.75;29.27;;;2.20;99.90;;;;;;5086293;28;20040;-72
2021/01/23 01:50:26;;;;;;;43.75;27.77;;;2.20;99.90;;;;;;5085968;28;20050;-72
2021/01/23 01:52:52;;;;;;;53.88;28.30;;;2.20;99.90;;;;;;5086397;28;20048;-73
2021/01/23 01:55:19;;;;;;;53.20;27.27;;;2.10;99.90;;;;;;5086180;28;20048;-73
2021/01/23 01:57:45;;;;;;;45.80;28.88;;;2.10;99.90;;;;;;5084950;28;20079;-73
2021/01/23 02:00:11;;;;;;;52.90;30.23;;;2.10;99.90;;;;;;5085601;28;20101;-73
2021/01/23 02:03:06;;;;;;;50.95;29.55;;;2.10;99.90;;;;;;5067062;28;20040;-72
2021/01/23 02:05:45;;;;;;;45.55;27.83;;;2.00;99.90;;;;;;5085325;28;20067;-72
2021/01/23 02:08:31;;;;;;;44.58;28.52;;;2.00;99.90;;;;;;5085627;28;20074;-71
2021/01/23 02:11:14;;;;;;;44.00;28.73;;;2.00;99.90;;;;;;5086648;28;20044;-72
2021/01/23 02:13:53;;;;;;;52.05;30.67;;;2.00;99.90;;;;;;5084582;28;20193;-72
2021/01/23 02:16:25;;;;;;;42.05;29.30;;;2.10;99.90;;;;;;5085561;28;20048;-71
2021/01/23 02:19:02;;;;;;;46.40;28.13;;;2.10;99.90;;;;;;5085782;28;20044;-70
2021/01/23 02:22:01;;;;;;;53.88;29.67;;;2.10;99.90;;;;;;5084581;28;20717;-70
2021/01/23 02:24:28;;;;;;;38.20;27.23;;;2.20;99.90;;;;;;5084687;28;20051;-72
2021/01/23 02:27:15;;;;;;;45.03;27.75;;;2.20;99.90;;;;;;5067074;28;20138;-73
2021/01/23 02:29:57;;;;;;;48.35;30.42;;;2.20;99.90;;;;;;5085198;28;20104;-70
2021/01/23 02:32:27;;;;;;;40.15;26.25;;;2.20;99.90;;;;;;5085710;28;20048;-71
2021/01/23 02:34:53;;;;;;;41.42;28.30;;;2.10;99.90;;;;;;5084887;28;20066;-71
2021/01/23 02:37:20;;;;;;;39.42;27.33;;;2.10;99.90;;;;;;5085173;28;20040;-71
2021/01/23 02:39:47;;;;;;;39.65;27.63;;;2.00;99.90;;;;;;5084621;28;20051;-72
2021/01/23 02:42:12;;;;;;;42.55;26.75;;;2.00;99.90;;;;;;5085188;28;20069;-70
2021/01/23 02:44:38;;;;;;;46.03;27.45;;;2.00;99.90;;;;;;5084988;28;20125;-72
2021/01/23 02:47:03;;;;;;;45.05;29.13;;;1.90;99.90;;;;;;5084621;28;20059;-72
2021/01/23 02:49:29;;;;;;;51.72;35.67;;;1.90;99.90;;;;;;5084380;28;20613;-71
2021/01/23 02:52:04;;;;;;;60.00;34.50;;;1.90;99.90;;;;;;5084301;28;20056;-72
2021/01/23 02:54:51;;;;;;;54.42;35.05;;;1.90;99.90;;;;;;5084025;28;20127;-73
2021/01/23 02:57:20;;;;;;;51.05;33.30;;;1.80;99.90;;;;;;5083631;28;20113;-72
2021/01/23 02:59:49;;;;;;;54.67;33.45;;;1.80;99.90;;;;;;5083331;28;20036;-72
2021/01/23 03:02:17;;;;;;;51.53;32.03;;;1.80;99.90;;;;;;5084425;28;20048;-72
2021/01/23 03:04:43;;;;;;;48.60;31.00;;;1.80;99.90;;;;;;5066494;28;20058;-71
2021/01/23 03:07:12;;;;;;;44.58;29.23;;;1.80;99.90;;;;;;5084594;28;20040;-71
2021/01/23 03:09:38;;;;;;;50.33;31.45;;;1.90;99.90;;;;;;5096602;28;20047;-73
2021/01/23 03:12:04;;;;;;;43.35;31.30;;;1.90;99.90;;;;;;5084675;28;20407;-72
2021/01/23 03:14:29;;;;;;;48.08;30.92;;;1.90;99.90;;;;;;5084240;28;20062;-72
2021/01/23 03:16:56;;;;;;;39.53;24.15;;;2.00;99.90;;;;;;5085614;28;20044;-73
2021/01/23 03:19:22;;;;;;;46.22;26.92;;;2.00;99.90;;;;;;5084635;28;20040;-73
2021/01/23 03:21:49;;;;;;;49.38;28.73;;;2.10;99.90;;;;;;5085111;28;20044;-71
2021/01/23 03:24:16;;;;;;;53.65;29.25;;;2.00;99.90;;;;;;5083617;28;20135;-71
2021/01/23 03:26:42;;;;;;;45.88;31.02;;;1.90;99.90;;;;;;5083432;28;20130;-72
2021/01/23 03:29:08;;;;;;;46.63;27.85;;;2.00;99.90;;;;;;5084400;28;20481;-72
2021/01/23 03:31:34;;;;;;;47.35;29.30;;;2.00;99.90;;;;;;5083075;28;20135;-72
2021/01/23 03:34:00;;;;;;;47.08;30.95;;;1.90;99.90;;;;;;5084021;28;20334;-72
2021/01/23 03:36:26;;;;;;;47.40;31.65;;;1.80;99.90;;;;;;5083796;28;20048;-72
2021/01/23 03:38:52;;;;;;;50.05;31.00;;;1.90;99.90;;;;;;5084369;28;20097;-73
2021/01/23 03:41:19;;;;;;;41.85;30.45;;;1.80;99.90;;;;;;5083131;28;20049;-73
2021/01/23 03:43:44;;;;;;;42.08;30.17;;;1.80;99.90;;;;;;5082909;28;20048;-72
2021/01/23 03:46:10;;;;;;;47.28;32.78;;;1.80;99.90;;;;;;5083681;28;20062;-73
2021/01/23 03:48:36;;;;;;;48.30;30.27;;;1.90;99.90;;;;;;5082117;28;20047;-73
2021/01/23 03:51:03;;;;;;;50.63;30.40;;;1.90;99.90;;;;;;5083671;28;20052;-74
2021/01/23 03:53:29;;;;;;;44.33;29.63;;;1.80;99.90;;;;;;5065445;28;20048;-73
2021/01/23 03:55:54;;;;;;;49.25;29.70;;;1.80;99.90;;;;;;5064049;28;20059;-71
2021/01/23 03:58:21;;;;;;;47.60;28.90;;;1.90;99.90;;;;;;5076857;28;20040;-71
2021/01/23 04:00:46;;;;;;;40.15;27.80;;;1.90;99.90;;;;;;5083625;28;20085;-72
2021/01/23 04:03:12;;;;;;;45.65;31.70;;;2.00;99.90;;;;;;5083203;28;20105;-71
2021/01/23 04:05:38;;;;;;;48.97;32.30;;;1.90;99.90;;;;;;5082835;28;20040;-72
2021/01/23 04:08:05;;;;;;;52.05;32.10;;;1.90;99.90;;;;;;5082953;28;20439;-71
2021/01/23 04:10:30;;;;;;;56.40;30.92;;;1.90;99.90;;;;;;5082980;28;20440;-72
2021/01/23 04:12:56;;;;;;;43.13;28.95;;;1.90;99.90;;;;;;5082276;28;20046;-71
2021/01/23 04:15:23;;;;;;;38.55;24.65;;;2.10;99.90;;;;;;5082957;28;20392;-72
2021/01/23 04:17:49;;;;;;;38.35;23.50;;;2.20;99.90;;;;;;5082709;28;20508;-72
2021/01/23 04:20:15;;;;;;;33.05;21.60;;;2.30;99.90;;;;;;5075842;28;20132;-72
2021/01/23 04:22:41;;;;;;;38.75;25.38;;;2.30;99.90;;;;;;5068764;28;20478;-72
2021/01/23 04:25:07;;;;;;;36.15;28.90;;;2.20;99.90;;;;;;5083114;28;20381;-70
2021/01/23 04:27:33;;;;;;;39.05;22.95;;;2.10;99.90;;;;;;5081941;28;20048;-72
2021/01/23 04:29:58;;;;;;;41.15;30.70;;;2.20;99.90;;;;;;5083426;28;20476;-72
2021/01/23 04:32:24;;;;;;;44.25;28.85;;;2.20;99.90;;;;;;5082111;28;20123;-72
2021/01/23 04:34:50;;;;;;;46.15;30.95;;;2.20;99.90;;;;;;5083901;28;20101;-72
2021/01/23 04:37:16;;;;;;;40.28;29.00;;;2.20;99.90;;;;;;5082773;28;20052;-73
2021/01/23 04:39:41;;;;;;;41.53;29.80;;;2.30;99.90;;;;;;5082198;28;20044;-70
2021/01/23 04:42:08;;;;;;;44.53;32.25;;;2.20;99.90;;;;;;5082328;28;20071;-72
2021/01/23 04:44:34;;;;;;;52.05;33.25;;;2.20;99.90;;;;;;5083467;28;20048;-70
2021/01/23 04:47:02;;;;;;;47.97;36.17;;;2.20;99.90;;;;;;5083189;28;20047;-71
2021/01/23 04:49:33;;;;;;;29.63;21.55;;;2.30;99.90;;;;;;5081724;28;20051;-70
2021/01/23 04:52:02;;;;;;;61.58;39.95;;;2.40;99.90;;;;;;5082288;28;20290;-70
2021/01/23 04:54:29;;;;;;;45.40;32.88;;;2.20;99.90;;;;;;5082513;28;20044;-71
2021/01/23 04:56:55;;;;;;;54.20;36.50;;;2.20;99.90;;;;;;5081015;28;20460;-71
2021/01/23 04:59:21;;;;;;;66.57;43.67;;;2.20;99.90;;;;;;5082982;28;20536;-71
2021/01/23 05:02:22;;;;;;;70.13;42.05;;;2.20;99.90;;;;;;5082552;28;20040;-71
2021/01/23 05:04:51;;;;;;;61.47;43.40;;;2.20;99.90;;;;;;5082341;28;20411;-71
2021/01/23 05:07:38;;;;;;;59.63;40.60;;;2.30;99.90;;;;;;5082579;28;20051;-71
2021/01/23 05:10:24;;;;;;;61.55;42.88;;;2.30;99.90;;;;;;5082398;28;20039;-71
2021/01/23 05:12:51;;;;;;;57.65;40.45;;;2.30;99.90;;;;;;5081528;28;20047;-70
2021/01/23 05:15:30;;;;;;;58.83;38.83;;;2.30;99.90;;;;;;5082198;28;20036;-70
2021/01/23 05:18:05;;;;;;;66.13;42.75;;;2.40;99.90;;;;;;5083073;28;20052;-70
2021/01/23 05:20:46;;;;;;;55.55;42.30;;;2.40;99.90;;;;;;5081806;28;20051;-71
2021/01/23 05:23:38;;;;;;;58.05;39.35;;;2.40;99.90;;;;;;5082165;28;20514;-70
2021/01/23 05:26:03;;;;;;;68.38;41.72;;;2.40;99.90;;;;;;5078946;28;20044;-70
2021/01/23 05:28:30;;;;;;;60.72;40.85;;;2.40;99.90;;;;;;5081829;28;20055;-70
2021/01/23 05:30:57;;;;;;;53.10;39.75;;;2.40;99.90;;;;;;5081776;28;20036;-70
2021/01/23 05:33:24;;;;;;;64.47;42.72;;;2.40;99.90;;;;;;5082408;28;20516;-71
2021/01/23 05:36:13;;;;;;;58.42;44.05;;;2.40;99.90;;;;;;5083469;28;20047;-70
2021/01/23 05:38:44;;;;;;;71.13;41.80;;;2.40;99.90;;;;;;5081927;28;20481;-70
2021/01/23 05:41:10;;;;;;;64.95;44.17;;;2.40;99.90;;;;;;5081202;28;20074;-70
2021/01/23 05:43:36;;;;;;;57.95;42.47;;;2.40;99.90;;;;;;5081385;28;20279;-71
2021/01/23 05:46:07;;;;;;;57.80;40.22;;;2.40;99.90;;;;;;5081498;28;20492;-71
2021/01/23 05:48:34;;;;;;;68.13;46.38;;;2.40;99.90;;;;;;5081693;28;20048;-71
2021/01/23 05:51:00;;;;;;;58.70;44.92;;;2.50;99.90;;;;;;5081279;28;20054;-71
2021/01/23 05:53:26;;;;;;;66.75;45.78;;;2.40;99.90;;;;;;5082852;28;20407;-71
2021/01/23 05:55:52;;;;;;;71.03;48.35;;;2.50;99.90;;;;;;5082369;28;20550;-70
2021/01/23 05:58:18;;;;;;;64.88;43.50;;;2.50;99.90;;;;;;5080922;28;20131;-71
2021/01/23 06:00:47;;;;;;;67.43;45.03;;;2.50;99.90;;;;;;5081256;28;20574;-72
2021/01/23 06:03:13;;;;;;;65.60;46.63;;;2.50;99.90;;;;;;5081957;28;20048;-71
2021/01/23 06:05:39;;;;;;;63.67;46.08;;;2.50;99.90;;;;;;5081737;28;20075;-70
2021/01/23 06:08:04;;;;;;;59.92;46.70;;;2.60;99.90;;;;;;5081287;28;20075;-71
2021/01/23 06:10:34;;;;;;;62.25;44.30;;;2.60;99.90;;;;;;5081917;28;20052;-70
2021/01/23 06:12:59;;;;;;;61.95;48.03;;;2.60;99.90;;;;;;5066583;28;20130;-72
2021/01/23 06:15:31;;;;;;;55.85;42.40;;;2.70;99.90;;;;;;5085213;28;20477;-72
2021/01/23 06:17:57;;;;;;;57.83;41.75;;;2.70;99.90;;;;;;5086589;28;20048;-72
2021/01/23 06:20:41;;;;;;;61.13;42.63;;;2.70;99.90;;;;;;5088254;28;20043;-70
2021/01/23 06:23:11;;;;;;;60.78;43.45;;;2.70;99.90;;;;;;5085121;28;20040;-71
2021/01/23 06:25:49;;;;;;;64.72;39.33;;;2.70;99.90;;;;;;5085426;28;20058;-71
2021/01/23 06:28:15;;;;;;;54.05;39.13;;;2.80;99.90;;;;;;5084778;28;20400;-70
2021/01/23 06:30:41;;;;;;;55.53;39.60;;;2.80;99.90;;;;;;5084934;28;20397;-70
2021/01/23 06:33:24;;;;;;;65.15;42.88;;;2.80;99.90;;;;;;5086199;28;20051;-71
2021/01/23 06:36:08;;;;;;;55.03;41.05;;;2.80;99.90;;;;;;5085149;28;20044;-71
2021/01/23 06:38:34;;;;;;;59.00;41.03;;;2.80;99.90;;;;;;5085477;28;20505;-71
2021/01/23 06:41:25;;;;;;;59.67;41.28;;;2.90;99.90;;;;;;5084762;28;20036;-71
2021/01/23 06:44:06;;;;;;;59.08;42.45;;;2.90;99.90;;;;;;5085551;28;20147;-70
2021/01/23 06:46:34;;;;;;;60.45;41.38;;;2.90;99.90;;;;;;5099835;28;20048;-71
2021/01/23 06:49:01;;;;;;;58.80;42.80;;;2.90;99.90;;;;;;5084755;28;20043;-71
2021/01/23 06:51:27;;;;;;;56.55;40.42;;;3.00;99.90;;;;;;5084571;28;20056;-70
2021/01/23 06:54:15;;;;;;;63.88;41.80;;;3.00;99.90;;;;;;5083886;28;20097;-70
2021/01/23 06:56:42;;;;;;;55.60;40.90;;;3.00;99.90;;;;;;5084509;28;20070;-72
2021/01/23 06:59:20;;;;;;;55.72;41.40;;;3.00;99.90;;;;;;5084696;28;20089;-70
2021/01/23 07:01:53;;;;;;;56.60;40.88;;;3.10;99.90;;;;;;5084025;28;20672;-71
2021/01/23 07:04:18;;;;;;;61.40;40.03;;;3.10;99.90;;;;;;5067341;28;20044;-70
2021/01/23 07:06:45;;;;;;;56.35;41.88;;;3.20;99.90;;;;;;5084384;28;20123;-71
2021/01/23 07:09:10;;;;;;;59.88;38.83;;;3.20;99.90;;;;;;5085715;28;20044;-71
2021/01/23 07:11:39;;;;;;;50.30;38.20;;;3.20;99.90;;;;;;5094565;28;20098;-70
2021/01/23 07:14:06;;;;;;;48.35;40.00;;;3.20;99.90;;;;;;5077050;28;20043;-70
2021/01/23 07:16:34;;;;;;;53.03;42.15;;;3.30;99.90;;;;;;5081431;28;20044;-72
2021/01/23 07:19:05;;;;;;;55.10;41.50;;;3.30;99.90;;;;;;5080967;28;20117;-71
2021/01/23 07:21:33;;;;;;;52.53;36.10;;;3.30;99.90;;;;;;5078113;28;20048;-70
2021/01/23 07:24:00;;;;;;;50.85;38.65;;;3.30;99.90;;;;;;5073231;28;20437;-71
2021/01/23 07:26:26;;;;;;;47.05;38.42;;;3.30;99.90;;;;;;5078325;28;20271;-70
2021/01/23 07:28:56;;;;;;;50.65;37.92;;;3.40;99.90;;;;;;5081844;28;20036;-70
2021/01/23 07:31:24;;;;;;;45.33;35.97;;;3.40;99.90;;;;;;5083881;28;20062;-72
2021/01/23 07:33:50;;;;;;;41.35;32.30;;;3.50;99.90;;;;;;5082769;28;20126;-71
2021/01/23 07:36:39;;;;;;;49.47;36.67;;;3.50;99.90;;;;;;5083037;28;20048;-71
2021/01/23 07:39:10;;;;;;;47.65;35.67;;;3.60;99.90;;;;;;5083773;28;20495;-70
2021/01/23 07:41:45;;;;;;;44.08;39.00;;;3.60;99.90;;;;;;5063157;28;20040;-70
2021/01/23 07:44:12;;;;;;;40.97;35.55;;;3.60;99.90;;;;;;5083291;28;20515;-70
2021/01/23 07:46:43;;;;;;;50.65;35.83;;;3.60;99.90;;;;;;5083126;28;20028;-71
2021/01/23 07:49:26;;;;;;;37.53;29.77;;;3.60;99.90;;;;;;5084253;28;20040;-71
2021/01/23 07:52:04;;;;;;;44.97;36.00;;;3.70;99.90;;;;;;5082101;28;20076;-70
2021/01/23 07:54:30;;;;;;;43.60;32.60;;;3.70;99.90;;;;;;5080883;28;20304;-71
2021/01/23 07:56:57;;;;;;;39.92;33.67;;;3.70;99.90;;;;;;5063918;28;20047;-71
2021/01/23 07:59:43;;;;;;;38.85;31.73;;;3.80;99.90;;;;;;5082087;28;20085;-71
2021/01/23 08:02:10;;;;;;;38.22;33.92;;;3.80;99.90;;;;;;5081829;28;20456;-70
2021/01/23 08:04:37;;;;;;;36.80;31.45;;;3.80;99.90;;;;;;5048433;28;20040;-70
2021/01/23 08:07:30;;;;;;;33.90;30.33;;;3.90;99.90;;;;;;5083185;28;20044;-71
2021/01/23 08:10:19;;;;;;;39.90;29.52;;;3.90;99.90;;;;;;5081444;28;20435;-71
2021/01/23 08:12:58;;;;;;;36.72;25.95;;;3.90;99.90;;;;;;5082419;28;20076;-71
2021/01/23 08:15:29;;;;;;;34.25;24.67;;;3.90;99.90;;;;;;5071336;28;20112;-70
2021/01/23 08:17:55;;;;;;;34.60;26.92;;;3.90;99.90;;;;;;5082397;28;20044;-70
2021/01/23 08:20:38;;;;;;;32.08;27.95;;;3.90;99.90;;;;;;5082386;28;20435;-71
2021/01/23 08:23:10;;;;;;;29.88;24.02;;;3.90;99.90;;;;;;5082651;28;20068;-71
2021/01/23 08:25:46;;;;;;;32.28;26.55;;;3.90;99.90;;;;;;5081442;28;20050;-71
2021/01/23 08:28:13;;;;;;;31.13;25.70;;;3.90;99.90;;;;;;5076059;28;20040;-71
2021/01/23 08:30:39;;;;;;;28.38;24.80;;;3.90;99.90;;;;;;5080006;28;20048;-70
2021/01/23 08:33:06;;;;;;;26.65;23.13;;;3.90;99.90;;;;;;5083259;28;20408;-70
2021/01/23 08:35:34;;;;;;;28.42;23.15;;;3.90;99.90;;;;;;5081262;28;20040;-70
2021/01/23 08:38:00;;;;;;;28.42;22.77;;;3.90;99.90;;;;;;5083137;28;20081;-71
2021/01/23 08:40:26;;;;;;;25.80;22.65;;;3.90;99.90;;;;;;5081594;28;20147;-71
2021/01/23 08:42:51;;;;;;;28.40;22.20;;;4.00;99.90;;;;;;5080531;28;20536;-71
2021/01/23 08:45:19;;;;;;;27.25;23.05;;;4.00;99.90;;;;;;5081676;28;20048;-70
2021/01/23 08:47:45;;;;;;;29.35;19.73;;;4.00;99.90;;;;;;5080724;28;20055;-71
2021/01/23 08:50:11;;;;;;;23.88;20.63;;;4.00;99.90;;;;;;5081199;28;20048;-72
2021/01/23 08:52:37;;;;;;;23.92;18.85;;;4.00;99.90;;;;;;5080164;28;20344;-69
2021/01/23 08:55:05;;;;;;;25.88;21.38;;;4.00;99.90;;;;;;5075569;28;20574;-72
2021/01/23 08:57:31;;;;;;;27.90;21.17;;;4.00;99.90;;;;;;5080580;28;20040;-71
2021/01/23 08:59:56;;;;;;;36.22;24.25;;;4.00;99.90;;;;;;5081409;28;20315;-71
2021/01/23 09:02:22;;;;;;;27.08;22.48;;;4.00;99.90;;;;;;5082259;28;20036;-71
2021/01/23 09:04:48;;;;;;;24.52;20.17;;;4.00;99.90;;;;;;5081924;28;20032;-71
2021/01/23 09:07:14;;;;;;;23.73;21.20;;;4.10;99.90;;;;;;5082312;28;20052;-71
2021/01/23 09:09:39;;;;;;;25.00;18.88;;;4.10;99.90;;;;;;5062520;28;20476;-70
2021/01/23 09:12:06;;;;;;;21.27;18.60;;;4.10;99.90;;;;;;5079120;28;20048;-70
2021/01/23 09:14:32;;;;;;;28.50;20.80;;;4.10;99.90;;;;;;5079123;28;20500;-70
2021/01/23 09:16:57;;;;;;;24.45;19.70;;;4.30;99.90;;;;;;5078082;28;20112;-70
2021/01/23 09:19:23;;;;;;;22.35;19.95;;;4.20;99.90;;;;;;5081419;28;20128;-71
2021/01/23 09:21:49;;;;;;;21.83;17.70;;;4.20;99.90;;;;;;5081503;28;20044;-69
2021/01/23 09:24:15;;;;;;;23.13;18.95;;;4.20;99.90;;;;;;5064659;28;20040;-71
2021/01/23 09:26:42;;;;;;;20.88;18.13;;;4.20;99.90;;;;;;5079949;28;20050;-72
2021/01/23 09:29:07;;;;;;;22.65;18.80;;;4.20;99.90;;;;;;5081389;28;20120;-70
2021/01/23 09:31:33;;;;;;;22.33;20.13;;;4.20;99.90;;;;;;5081295;28;20098;-71
2021/01/23 09:33:59;;;;;;;23.45;18.92;;;4.30;99.90;;;;;;5072451;28;20058;-72
2021/01/23 09:36:26;;;;;;;24.85;18.65;;;4.30;99.90;;;;;;5080855;28;20305;-70
2021/01/23 09:38:51;;;;;;;18.58;16.67;;;4.40;99.90;;;;;;5080895;28;20115;-72
2021/01/23 09:41:17;;;;;;;20.95;18.15;;;4.50;99.90;;;;;;5080915;28;20546;-72
2021/01/23 09:43:42;;;;;;;18.00;15.02;;;5.50;99.90;;;;;;5081040;28;20059;-72
2021/01/23 09:46:08;;;;;;;13.05;11.57;;;5.80;99.90;;;;;;5080403;28;20048;-71
2021/01/23 09:48:34;;;;;;;17.60;12.40;;;5.30;99.90;;;;;;5084242;28;20047;-70
2021/01/23 09:50:59;;;;;;;15.88;9.48;;;6.40;99.90;;;;;;5066527;28;20052;-72
2021/01/23 09:53:25;;;;;;;10.88;8.63;;;6.80;99.90;;;;;;5084080;28;20544;-71
2021/01/23 09:55:51;;;;;;;13.98;8.48;;;5.90;99.90;;;;;;5084242;28;20048;-72
2021/01/23 09:58:17;;;;;;;9.70;7.47;;;5.80;99.90;;;;;;5084909;28;20040;-70
2021/01/23 10:00:43;;;;;;;10.38;6.47;;;5.40;99.90;;;;;;5084687;28;20071;-72
2021/01/23 10:03:09;;;;;;;8.48;6.43;;;5.30;99.90;;;;;;5084033;28;20447;-71
2021/01/23 10:05:35;;;;;;;7.68;5.80;;;5.40;99.90;;;;;;5083146;28;20146;-71
2021/01/23 10:08:01;;;;;;;9.77;5.80;;;5.60;99.90;;;;;;5084420;28;20515;-70
2021/01/23 10:10:28;;;;;;;9.57;5.63;;;6.70;99.90;;;;;;5082820;28;20055;-71
2021/01/23 10:12:53;;;;;;;7.25;5.63;;;5.70;99.90;;;;;;5084695;28;20050;-71
2021/01/23 10:15:19;;;;;;;8.07;5.68;;;5.70;99.90;;;;;;5084745;28;20040;-71
2021/01/23 10:17:45;;;;;;;10.43;6.57;;;5.30;99.90;;;;;;5075317;28;20098;-73
2021/01/23 10:20:11;;;;;;;9.95;5.10;;;5.20;99.90;;;;;;5084178;28;20040;-72
2021/01/23 10:22:36;;;;;;;7.85;5.80;;;5.10;99.90;;;;;;5084752;28;20042;-72
2021/01/23 10:25:04;;;;;;;10.15;6.55;;;5.00;99.90;;;;;;5084625;28;20123;-70
2021/01/23 10:27:30;;;;;;;11.80;7.18;;;4.90;99.90;;;;;;5083886;28;20108;-73
2021/01/23 10:29:55;;;;;;;12.75;9.13;;;4.90;99.90;;;;;;5083074;28;20056;-73
2021/01/23 10:32:21;;;;;;;11.73;10.10;;;4.90;99.90;;;;;;5083960;28;20052;-72
2021/01/23 10:34:46;;;;;;;12.60;8.73;;;4.80;99.90;;;;;;5083306;28;20484;-71
2021/01/23 10:37:12;;;;;;;10.68;7.32;;;4.80;99.90;;;;;;5084639;28;20036;-72
2021/01/23 10:39:38;;;;;;;13.55;8.57;;;4.80;99.90;;;;;;5083647;28;20123;-73
2021/01/23 10:42:04;;;;;;;14.98;8.88;;;4.70;99.90;;;;;;5083872;28;20119;-72
2021/01/23 10:44:29;;;;;;;10.32;8.43;;;4.80;99.90;;;;;;5082308;28;20078;-72
2021/01/23 10:46:55;;;;;;;11.43;6.40;;;4.80;99.90;;;;;;5083944;28;20346;-72
2021/01/23 10:49:21;;;;;;;8.70;6.93;;;4.90;99.90;;;;;;5084298;28;20048;-72
2021/01/23 10:51:48;;;;;;;10.07;5.47;;;5.10;99.90;;;;;;5084619;28;20127;-72
2021/01/23 10:54:14;;;;;;;8.00;4.90;;;5.10;99.90;;;;;;5084190;28;20040;-72
2021/01/23 10:56:40;;;;;;;6.55;3.67;;;5.10;99.90;;;;;;5082278;28;20039;-72
2021/01/23 10:59:05;;;;;;;4.00;2.80;;;6.30;99.90;;;;;;5084878;28;20544;-71
2021/01/23 11:01:31;;;;;;;4.60;2.10;;;7.10;99.90;;;;;;5084247;28;20044;-73
2021/01/23 11:03:57;;;;;;;5.55;1.75;;;7.60;99.90;;;;;;5082664;28;20464;-73
2021/01/23 11:06:24;;;;;;;3.40;1.70;;;7.40;99.90;;;;;;5084051;28;20475;-73
2021/01/23 11:08:50;;;;;;;5.53;1.70;;;7.90;99.90;;;;;;5082137;28;20381;-71
2021/01/23 11:11:16;;;;;;;2.22;0.88;;;8.10;99.90;;;;;;5081378;28;20043;-71
2021/01/23 11:13:42;;;;;;;5.38;1.15;;;6.40;99.90;;;;;;5077835;28;20173;-71
2021/01/23 11:16:08;;;;;;;3.95;1.10;;;6.20;99.90;;;;;;5082813;28;20261;-73
2021/01/23 11:18:34;;;;;;;1.17;0.55;;;6.00;99.90;;;;;;5075408;28;20052;-69
2021/01/23 11:21:00;;;;;;;2.35;0.80;;;6.10;99.90;;;;;;5081681;28;20051;-71
2021/01/23 11:23:25;;;;;;;2.60;0.90;;;6.20;99.90;;;;;;5082275;28;20062;-71
2021/01/23 11:25:52;;;;;;;1.25;0.60;;;6.30;99.90;;;;;;5065236;28;20048;-71
2021/01/23 11:28:17;;;;;;;7.43;1.20;;;5.80;99.90;;;;;;5082573;28;20028;-71
2021/01/23 11:30:43;;;;;;;2.17;0.40;;;5.70;99.90;;;;;;5083394;28;20048;-72
2021/01/23 11:33:08;;;;;;;2.95;0.80;;;5.60;99.90;;;;;;5080964;28;20071;-73
2021/01/23 11:35:34;;;;;;;2.95;0.93;;;5.60;99.90;;;;;;5082201;28;20069;-72
2021/01/23 11:38:02;;;;;;;4.40;0.90;;;5.60;99.90;;;;;;5082420;28;20460;-72
2021/01/23 11:40:28;;;;;;;3.83;0.80;;;5.60;99.90;;;;;;5082037;28;20068;-72
2021/01/23 11:42:54;;;;;;;3.67;1.27;;;5.70;99.90;;;;;;5082451;28;20133;-73
2021/01/23 11:45:21;;;;;;;2.88;0.70;;;5.60;99.90;;;;;;5083790;28;20114;-72
2021/01/23 11:47:48;;;;;;;3.20;0.55;;;5.80;99.90;;;;;;5081301;28;20400;-73
2021/01/23 11:50:13;;;;;;;1.73;0.50;;;5.80;99.90;;;;;;5070874;28;20512;-72
2021/01/23 11:52:39;;;;;;;3.53;0.50;;;5.70;99.90;;;;;;5072594;28;20044;-73
2021/01/23 11:55:05;;;;;;;5.63;0.98;;;5.60;99.90;;;;;;5082238;28;20044;-72
2021/01/23 11:57:31;;;;;;;3.60;0.40;;;5.70;99.90;;;;;;5082949;28;20044;-73
2021/01/23 11:59:57;;;;;;;4.97;0.60;;;5.70;99.90;;;;;;5082071;28;20040;-72
2021/01/23 12:02:22;;;;;;;1.63;0.43;;;5.70;99.90;;;;;;5083140;28;20531;-71
2021/01/23 12:04:50;;;;;;;1.35;0.75;;;5.70;99.90;;;;;;5082392;28;20055;-73
2021/01/23 12:07:16;;;;;;;7.00;1.00;;;5.70;99.90;;;;;;5083330;28;20044;-73
2021/01/23 12:09:43;;;;;;;5.60;0.90;;;5.50;99.90;;;;;;5081977;28;20074;-73
2021/01/23 12:12:09;;;;;;;4.45;1.40;;;5.50;99.90;;;;;;5076719;28;20080;-71
2021/01/23 12:14:35;;;;;;;3.22;0.77;;;5.70;99.90;;;;;;5082949;28;20071;-73
2021/01/23 12:17:00;;;;;;;3.78;0.73;;;5.80;99.90;;;;;;5077276;28;20063;-73
2021/01/23 12:19:26;;;;;;;3.92;0.77;;;5.80;99.90;;;;;;5082078;28;20299;-72
2021/01/23 12:21:52;;;;;;;5.90;0.77;;;5.90;99.90;;;;;;5081943;28;20047;-73
2021/01/23 12:24:17;;;;;;;4.80;0.50;;;5.90;99.90;;;;;;5081297;28;20113;-74
2021/01/23 12:26:43;;;;;;;5.22;1.35;;;5.80;99.90;;;;;;5078845;28;20059;-73
2021/01/23 12:29:08;;;;;;;3.47;1.15;;;5.80;99.90;;;;;;5081500;28;20136;-73
2021/01/23 12:31:34;;;;;;;2.47;0.57;;;5.80;99.90;;;;;;5079958;28;20051;-72
2021/01/23 12:34:00;;;;;;;2.22;0.68;;;6.00;99.90;;;;;;5077510;28;20408;-73
2021/01/23 12:36:26;;;;;;;4.80;0.90;;;6.00;99.90;;;;;;5078320;28;20040;-73
2021/01/23 12:38:51;;;;;;;2.88;0.60;;;6.10;99.90;;;;;;5078783;28;20097;-73
2021/01/23 12:41:17;;;;;;;3.72;0.85;;;6.30;99.90;;;;;;5078996;28;20032;-73
2021/01/23 12:43:42;;;;;;;2.25;0.70;;;6.50;99.90;;;;;;5078434;28;20446;-72
2021/01/23 12:46:08;;;;;;;2.78;0.93;;;6.40;99.90;;;;;;5080992;28;20043;-71